Latest Weather Observations for St George

IDQ60801

Issued at 9:35 pm EST Thursday 18 September 2014 (issued every 30 minutes, with the page automatically refreshed every 10 minutes)

About weather observations | Map of weather stations | Latest weather observations for QLD | Other Formats
Station Details ID: 043109 Name: ST GEORGE AIRPORT Lat: -28.05 Lon: 148.59 Height: 198.5 m
Data from the previous 72 hours. | See also: Recent months at St George
Date/Time
EST
Temp
°C
App
Temp
°C
Dew
Point
Rel
Hum
%
Delta-T
°C
Wind Press
QNH
hPa
Press
MSL
hPa
Rain
since 9 am
mm
Dir
 
Spd
km/h
Gust
km/h
Spd
kts
Gust
kts
18/09:30pm 11.2 8.6 -4.9 32 5.9 S 0 0 0 0 1021.4 - 0.0
18/09:00pm 13.1 10.6 -4.1 30 6.6 S 0 0 0 0 1021.3 1020.9 0.0
18/08:30pm 13.9 10.6 -4.8 27 7.1 S 4 7 2 4 1021.0 - 0.0
18/08:00pm 14.2 9.9 -5.0 26 7.3 S 9 11 5 6 1020.6 - 0.0
18/07:30pm 14.9 10.5 -5.5 24 7.7 S 9 11 5 6 1020.2 - 0.0
18/07:00pm 16.1 12.2 -5.0 23 8.2 S 7 9 4 5 1019.9 - 0.0
18/06:30pm 18.1 13.8 -5.2 20 9.2 SSW 9 11 5 6 1019.5 - 0.0
18/06:00pm 19.1 14.3 -6.5 17 9.9 SSW 11 13 6 7 1019.1 1018.7 0.0
18/05:30pm 21.4 15.7 -7.2 14 11.2 SSW 15 19 8 10 1019.0 - 0.0
18/05:00pm 22.2 16.0 -8.5 12 11.8 SSW 17 24 9 13 1018.8 - 0.0
18/04:30pm 22.6 16.5 -7.2 13 11.8 SSW 17 24 9 13 1018.6 - 0.0
18/04:00pm 23.0 17.4 -5.9 14 11.8 S 15 20 8 11 1018.4 - 0.0
18/03:30pm 23.0 17.4 -6.9 13 12.0 SSW 15 24 8 13 1018.6 - 0.0
18/03:00pm 23.3 16.9 -6.6 13 12.1 SSW 19 26 10 14 1018.7 1018.3 0.0
18/02:30pm 22.3 15.7 -6.5 14 11.5 SSW 20 28 11 15 1018.8 - 0.0
18/02:00pm 23.0 17.4 -5.9 14 11.8 SSW 15 32 8 17 1019.2 - 0.0
18/01:30pm 22.2 15.9 -5.6 15 11.3 WSW 19 26 10 14 1019.6 - 0.0
18/01:00pm 21.5 15.1 -4.5 17 10.8 S 20 26 11 14 1019.9 - 0.0
18/12:30pm 21.6 15.3 -3.7 18 10.6 S 20 30 11 16 1020.5 - 0.0
18/12:00pm 21.5 15.1 -4.5 17 10.7 S 20 33 11 18 1020.9 1020.5 0.0
18/11:30am 21.3 15.1 -3.2 19 10.4 SSE 20 32 11 17 1021.4 - 0.0
18/11:00am 20.2 15.1 -2.2 22 9.6 S 15 22 8 12 1021.9 - 0.0
18/10:30am 19.2 13.3 -2.4 23 9.1 S 19 26 10 14 1022.6 - 0.0
18/10:00am 19.4 14.7 -1.7 24 9.1 S 13 28 7 15 1022.9 - 0.0
18/09:30am 19.1 13.2 -0.8 26 8.7 SSE 20 30 11 16 1023.1 - 0.0
18/09:00am 17.8 11.5 -0.9 28 8.0 SE 22 33 12 18 1023.3 1022.9 0.0
18/08:30am 17.0 10.7 -0.7 30 7.6 SSE 22 32 12 17 1023.1 - 0.0
18/08:00am 15.8 10.2 0.0 34 6.8 SSE 19 24 10 13 1023.0 - 0.0
18/07:30am 14.2 9.4 0.1 38 6.0 S 15 20 8 11 1022.7 - 0.0
18/07:00am 12.1 8.0 -0.1 43 5.1 S 11 13 6 7 1022.4 - 0.0
18/06:30am 9.6 5.9 0.2 52 3.8 SSW 9 11 5 6 1022.0 - 0.0
18/06:00am 9.1 5.3 -0.5 51 3.8 SSW 9 11 5 6 1021.5 1021.1 0.0
18/05:30am 9.5 6.0 -1.5 46 4.3 S 7 13 4 7 1021.0 - 0.0
18/05:00am 10.6 6.8 -1.1 44 4.7 S 9 11 5 6 1020.6 - 0.0
18/04:30am 11.2 7.0 -1.2 42 5.0 S 11 15 6 8 1020.2 - 0.0
18/04:00am 11.8 6.8 -1.3 40 5.3 S 15 20 8 11 1019.9 - 0.0
18/03:30am 9.9 5.8 0.0 50 4.0 SSW 11 15 6 8 1019.7 - 0.0
18/03:00am 9.5 6.2 -0.1 51 3.9 WSW 7 9 4 5 1019.4 1019.0 0.0
18/02:30am 9.7 6.4 0.1 51 3.9 SW 7 9 4 5 1019.3 - 0.0
18/02:00am 8.7 4.7 0.4 56 3.4 WSW 11 13 6 7 1019.3 - 0.0
18/01:30am 8.0 4.4 0.5 59 3.0 WSW 9 11 5 6 1019.1 - 0.0
18/01:00am 8.5 4.8 0.2 56 3.3 WSW 9 9 5 5 1019.1 - 0.0
18/12:30am 9.9 6.6 0.3 51 3.9 W 7 7 4 4 1019.1 - 0.0
18/12:00am 11.0 7.8 -0.5 45 4.7 SW 6 7 3 4 1019.1 1018.7 0.0
 
Date/Time
EST
Temp
°C
App
Temp
°C
Dew
Point
Rel
Hum
%
Delta-T
°C
Wind Press
QNH
hPa
Press
MSL
hPa
Rain
since 9 am
mm
Dir
 
Spd
km/h
Gust
km/h
Spd
kts
Gust
kts
17/11:30pm 11.0 7.6 -0.5 45 4.7 SSW 7 9 4 5 1019.0 - 0.0
17/11:00pm 11.5 8.1 -0.3 44 4.8 SW 7 7 4 4 1019.0 - 0.0
17/10:30pm 13.0 9.8 -0.3 40 5.5 SW 6 7 3 4 1019.0 - 0.0
17/10:00pm 14.3 10.9 -0.9 35 6.3 SW 7 9 4 5 1018.9 - 0.0
17/09:30pm 14.5 10.3 -1.2 34 6.5 SW 11 13 6 7 1018.8 - 0.0
17/09:00pm 15.0 11.2 -1.1 33 6.7 SW 9 11 5 6 1018.5 1018.1 0.0
17/08:30pm 15.4 11.5 -1.2 32 6.9 SW 9 11 5 6 1018.0 - 0.0
17/08:00pm 16.2 12.3 -1.4 30 7.4 SW 9 11 5 6 1017.6 - 0.0
17/07:30pm 17.0 12.8 -1.1 29 7.7 WSW 11 13 6 7 1017.4 - 0.0
17/07:00pm 18.4 13.8 -1.4 26 8.5 SW 13 15 7 8 1016.9 - 0.0
17/06:30pm 19.5 13.7 -1.6 24 9.1 SW 19 24 10 13 1016.5 - 0.0
17/06:00pm 20.5 14.8 -0.7 24 9.4 WSW 19 28 10 15 1015.9 1015.5 0.0
17/05:30pm 21.8 15.0 -1.5 21 10.3 WSW 24 33 13 18 1015.5 - 0.0
17/05:00pm 22.7 15.6 -1.4 20 10.7 WSW 26 35 14 19 1015.2 - 0.0
17/04:30pm 22.9 16.3 -0.6 21 10.6 WSW 24 33 13 18 1014.9 - 0.0
17/04:00pm 23.6 17.3 -1.3 19 11.2 WSW 22 33 12 18 1014.5 - 0.0
17/03:30pm 24.7 17.6 -1.2 18 11.7 WSW 26 35 14 19 1014.3 - 0.0
17/03:00pm 23.8 17.4 -1.9 18 11.4 WSW 22 33 12 18 1014.2 1013.8 0.0
17/02:30pm 23.9 17.6 -1.1 19 11.3 SW 22 33 12 18 1014.5 - 0.0
17/02:00pm 24.5 19.2 -0.6 19 11.5 WSW 17 43 9 23 1014.7 - 0.0
17/01:30pm 24.0 17.8 -0.3 20 11.1 WSW 22 32 12 17 1015.2 - 0.0
17/01:00pm 24.3 18.8 0.6 21 11.1 WNW 19 35 10 19 1015.5 - 0.0
17/12:30pm 22.7 18.6 2.2 26 9.8 WNW 13 20 7 11 1015.7 - 0.0
17/12:00pm 21.7 18.0 2.4 28 9.1 W 11 28 6 15 1016.2 1015.8 0.0
17/11:30am 21.6 16.2 2.3 28 9.1 W 20 28 11 15 1017.1 - 0.0
17/11:00am 21.2 16.8 2.5 29 8.9 SW 15 24 8 13 1017.4 - 0.0
17/10:30am 21.0 18.3 3.7 32 8.4 SE 7 11 4 6 1017.7 - 0.0
17/10:00am 21.5 18.7 5.0 34 8.2 SE 9 17 5 9 1018.1 - 0.0
17/09:30am 19.2 16.2 4.2 37 7.2 S 9 15 5 8 1018.4 - 0.0
17/09:00am 18.7 15.3 4.1 38 7.0 ESE 11 17 6 9 1018.0 1017.6 0.0
17/08:30am 16.5 13.3 3.2 41 6.2 SSE 9 13 5 7 1018.4 - 0.0
17/08:00am 15.4 12.7 3.5 45 5.5 SW 7 11 4 6 1018.4 - 0.0
17/07:30am 13.9 10.3 2.8 47 5.0 SW 11 15 6 8 1018.2 - 0.0
17/07:00am 12.0 8.7 2.7 53 4.1 SW 9 11 5 6 1017.7 - 0.0
17/06:30am 9.3 6.4 2.4 62 2.9 W 7 9 4 5 1017.3 - 0.0
17/06:00am 8.7 5.6 1.4 60 3.0 W 7 9 4 5 1016.9 1016.4 0.0
17/05:30am 10.2 7.2 2.1 57 3.5 WNW 7 9 4 5 1016.5 - 0.0
17/05:00am 9.5 6.5 1.9 59 3.2 W 7 7 4 4 1015.9 - 0.0
17/04:30am 8.7 4.8 1.1 59 3.1 W 11 13 6 7 1015.6 - 0.0
17/04:00am 8.8 5.2 0.8 57 3.3 WSW 9 11 5 6 1015.2 - 0.0
17/03:30am 9.9 6.8 1.3 55 3.6 W 7 9 4 5 1014.8 - 0.0
17/03:00am 10.0 6.9 1.6 56 3.5 W 7 9 4 5 1014.6 1014.2 0.0
17/02:30am 9.1 6.0 0.0 53 3.7 WNW 6 7 3 4 1014.8 - 0.0
17/02:00am 10.4 7.6 -0.1 48 4.3 W 4 6 2 3 1014.9 - 0.0
17/01:30am 10.9 7.6 -1.2 43 4.8 WSW 6 7 3 4 1014.9 - 0.0
17/01:00am 12.4 9.3 0.2 43 5.1 SSW 6 7 3 4 1014.7 - 0.0
17/12:30am 12.7 9.1 0.8 44 5.1 SSW 9 11 5 6 1014.9 - 0.0
17/12:00am 13.6 10.4 -0.4 38 5.8 SSW 6 7 3 4 1015.0 1014.6 0.0
 
Date/Time
EST
Temp
°C
App
Temp
°C
Dew
Point
Rel
Hum
%
Delta-T
°C
Wind Press
QNH
hPa
Press
MSL
hPa
Rain
since 9 am
mm
Dir
 
Spd
km/h
Gust
km/h
Spd
kts
Gust
kts
16/11:30pm 13.1 8.8 0.8 43 5.2 SW 13 15 7 8 1014.9 - 0.0
16/11:00pm 12.1 8.3 -1.1 40 5.3 SW 9 9 5 5 1014.8 - 0.0
16/10:30pm 12.0 8.0 -2.2 37 5.6 WSW 9 11 5 6 1015.0 - 0.0
16/10:00pm 13.9 10.8 -2.5 32 6.6 WSW 4 6 2 3 1014.9 - 0.0
16/09:30pm 15.6 11.9 -2.8 28 7.4 WSW 7 7 4 4 1015.1 - 0.0
16/09:00pm 16.2 12.1 -3.3 26 7.8 SW 9 9 5 5 1015.0 1014.6 0.0
16/08:30pm 17.9 13.7 -3.5 23 8.7 SW 9 9 5 5 1014.9 - 0.0
16/08:00pm 18.5 14.3 -4.2 21 9.2 SW 9 11 5 6 1014.6 - 0.0
16/07:30pm 20.0 14.6 -4.3 19 9.9 SW 15 17 8 9 1014.2 - 0.0
16/07:00pm 20.6 15.5 -5.3 17 10.5 SW 13 19 7 10 1013.8 - 0.0
16/06:30pm 21.8 16.5 -3.5 18 10.7 WSW 15 20 8 11 1013.4 - 0.0
16/06:00pm 23.4 17.5 -2.2 18 11.3 WSW 19 24 10 13 1012.9 1012.4 0.0
16/05:30pm 24.7 18.0 -1.2 18 11.7 WSW 24 32 13 17 1012.5 - 0.0
16/05:00pm 26.1 19.9 0.0 18 12.2 W 22 32 12 17 1012.3 - 0.0
16/04:30pm 26.5 19.8 -1.3 16 12.8 W 24 35 13 19 1012.2 - 0.0
16/04:00pm 26.8 19.5 -0.3 17 12.7 W 28 37 15 20 1012.1 - 0.0
16/03:30pm 26.9 20.2 1.3 19 12.4 W 26 33 14 18 1012.0 - 0.0
16/02:30pm 27.6 21.2 1.2 18 12.8 WNW 24 44 13 24 1012.3 - 0.0
16/02:00pm 27.5 20.1 1.8 19 12.6 W 30 39 16 21 1012.5 - 0.0
16/01:30pm 26.7 20.8 1.9 20 12.1 W 22 33 12 18 1012.9 - 0.0
16/01:00pm 26.3 19.6 1.6 20 11.9 W 26 41 14 22 1013.3 - 0.0
16/12:30pm 26.5 20.3 2.4 21 11.8 W 24 41 13 22 1013.6 - 0.0
16/12:00pm 26.5 20.8 3.1 22 11.6 WSW 22 33 12 18 1014.1 1013.7 0.0
16/11:30am 25.3 19.6 2.7 23 11.1 WSW 22 33 12 18 1014.6 - 0.0
16/11:00am 25.0 19.9 4.2 26 10.4 SW 20 33 11 18 1014.8 - 0.0
16/10:30am 23.6 18.7 4.0 28 9.7 WSW 19 30 10 16 1015.3 - 0.0
16/10:00am 23.4 18.4 4.4 29 9.5 WSW 20 32 11 17 1015.6 - 0.0
16/09:30am 22.7 17.8 4.2 30 9.1 SW 19 35 10 19 1015.6 - 0.0
16/09:00am 22.2 16.8 4.3 31 8.8 SW 22 30 12 16 1015.6 1015.2 0.0
16/08:30am 21.4 16.1 3.1 30 8.8 SW 20 30 11 16 1015.2 - 0.0
16/08:00am 20.7 16.0 3.4 32 8.3 WSW 17 20 9 11 1014.9 - 0.0
16/07:30am 18.8 16.2 4.2 38 7.0 W 7 11 4 6 1014.7 - 0.0
16/07:00am 17.7 14.7 3.9 40 6.5 N 9 13 5 7 1013.8 - 0.0
16/06:30am 15.6 12.7 2.7 42 5.9 N 7 9 4 5 1013.2 - 0.0
16/06:00am 15.6 12.8 2.1 40 6.1 NNW 6 7 3 4 1013.0 1012.5 0.0
16/05:30am 16.1 12.4 2.5 40 6.2 N 11 15 6 8 1012.5 - 0.0
16/05:00am 15.9 12.1 2.0 39 6.2 N 11 15 6 8 1012.5 - 0.0
16/04:30am 16.6 12.4 1.5 36 6.8 N 13 17 7 9 1012.3 - 0.0
16/04:00am 16.7 12.0 1.2 35 6.9 N 15 17 8 9 1012.2 - 0.0
16/03:30am 16.4 12.0 0.5 34 6.9 N 13 17 7 9 1012.3 - 0.0
16/03:00am 17.4 13.4 0.6 32 7.4 N 11 15 6 8 1012.3 1011.8 0.0
16/02:30am 16.8 12.7 -0.4 31 7.4 N 11 13 6 7 1012.3 - 0.0
16/02:00am 16.5 11.9 -1.1 30 7.4 N 13 15 7 8 1012.5 - 0.0
16/01:30am 17.6 13.4 -1.1 28 8.0 N 11 13 6 7 1012.9 - 0.0
16/01:00am 18.2 14.0 -0.6 28 8.2 NNW 11 17 6 9 1013.2 - 0.0
16/12:30am 15.7 11.8 -1.4 31 7.1 N 9 11 5 6 1013.1 - 0.0
16/12:00am 16.9 13.1 -0.8 30 7.6 N 9 13 5 7 1013.3 1012.9 0.0
 
Date/Time
EST
Temp
°C
App
Temp
°C
Dew
Point
Rel
Hum
%
Delta-T
°C
Wind Press
QNH
hPa
Press
MSL
hPa
Rain
since 9 am
mm
Dir
 
Spd
km/h
Gust
km/h
Spd
kts
Gust
kts
15/11:30pm 13.2 9.6 0.6 42 5.4 N 9 11 5 6 1013.5 - 0.0
15/11:00pm 13.6 10.6 0.6 41 5.6 NNW 6 9 3 5 1013.5 - 0.0
15/10:30pm 13.7 11.3 -0.3 38 5.9 N 2 6 1 3 1013.7 - 0.0
15/10:00pm 14.8 11.7 -0.1 36 6.3 NNW 6 7 3 4 1013.9 - 0.0

Other Formats:

Comma delimited format used in spreadsheet applications
http://www.bom.gov.au/fwo/IDQ60801/IDQ60801.94517.axf

JavaScript Object Notation format (JSON) in row-major order
http://www.bom.gov.au/fwo/IDQ60801/IDQ60801.94517.json